Niigata Airport, Japan

11:00 AM JST on September 17, 2014 (GMT +0900)
Niigata | Change Station
CLOSE
Current Station
Airport
Location: Niigata Airport,
Elevation: 13 ft
Nearby Weather Stations

Elev 13 ft 37.96 °N, 139.11 °E | Updated 1 hour ago

Scattered Clouds
Scattered Clouds
72 °F
Feels Like 72 °F
N
4
Wind Variable Wind from Variable

Today
High -- | Low -- °F
--% Chance of Precip.
Yesterday
High -- | Low -- °F
Precip. -- in
5:26 AM 5:49 PM
Last Quarter, 40% visible
Pressure 30.01 in
Visibility 6.2 miles
Clouds Few 2500 ft
Scattered Clouds 5000 ft
Dew Point 54 °F
Humidity 53%
Rainfall 0.00 in
Snow Depth Not available.
UV 5 out of 12
Pollen Not available.
Air Quality Not available.
Flu Activity Not available.
METAR RJSN 170100Z VRB03KT 9999 FEW025 SCT050 BKN/// 22/12 Q1016

More Conditions Fewer Conditions

Pressure 30.01 in
Visibility 6.2 miles
Clouds Few 2500 ft
Scattered Clouds 5000 ft
Dew Point 54 °F
Humidity 53%
Rainfall 0.00 in
Snow Depth Not available.
UV 5 out of 12
Pollen Not available.
Air Quality Not available.
Flu Activity Not available.
METAR RJSN 170100Z VRB03KT 9999 FEW025 SCT050 BKN/// 22/12 Q1016

More Conditions Fewer Conditions

10-Day Weather Forecast

Almanac

Astronomy

Sep. 17, 2014 Rise Set
Actual Time 5:26 AM JST 5:49 PM JST
Civil Twilight 5:00 AM JST 6:15 PM JST
Nautical Twilight 4:29 AM JST 6:46 PM JST
Astronomical Twilight 3:57 AM JST 7:17 PM JST
Moon 11:50 PM JST 1:26 PM JST
Length of Visible Light 13h 15m
Length of Day
12h 22m
Tomorrow will be 2m 25s shorter.
Last Quarter, 40% of the Moon is Illuminated
Sep 16
Last Quarter
Sep 24
New
Oct 1
First Quarter
Oct 8
Full
Oct 15
Last Quarter

Yesterday's Extremes

Country Highs Country Lows

Community

WunderPhotos

Upload Photos

1,753,947 photos uploaded!

Nearby

Snow Depth

Not available.

Earthquake Activity

City Distance Mag. Time & Date
No recent earthquake activity has been reported nearby.
Minimum magnitude displayed is 2.5.

Coastal Water Temperatures

Place Temperature
No Stations Reporting

Nearby Weather Stations